KORL/ORL METAR and TAF weather

Enter ICAO airport designator
Station Type Date Time Source
KORL METAR 2020/07/15 01:53 UTC NOAA

KORL 150153Z AUTO 22005KT 10SM CLR 27/22 A3004 RMK AO2 LTG DSNT N TSE06 SLP175 T02720222


Station Type Date Time Source
KORL Decoded METAR 2020/07/15 01:53 UTC NOAA

ORLANDO EXECUTIVE AIRPORT, FL, United States (KORL) 28-33N 081-20W 37M
Jul 14, 2020 - 09:53 PM EDT / 2020.07.15 0153 UTC
Wind: from the SW (220 degrees) at 6 MPH (5 KT):0
Visibility: 10 mile(s):0
Sky conditions: clear
Weather: Lightning observed
Temperature: 81.0 F (27.2 C)
Dew Point: 72.0 F (22.2 C)
Relative Humidity: 74%
Pressure (altimeter): 30.04 in. Hg (1017 hPa)
ob: KORL 150153Z AUTO 22005KT 10SM CLR 27/22 A3004 RMK AO2 LTG DSNT N TSE06 SLP175 T02720222
cycle: 2

Station Type Date Time Source
KORL TAF UTC NOAA

Error!

Example: see airport list